Time;durP1;ratioP1;P1;durP2;ratioP2;P2;SDS_P1;SDS_P2;PMS_P1;PMS_P2;Temp;Humidity;BMP_temperature;BMP_pressure;BME280_temperature;BME280_humidity;BME280_pressure;Samples;Min_cycle;Max_cycle;Signal;HPM_P1;HPM_P2
2023/05/01 00:01:28;;;;;;;5.82;5.43;;;;;;;9.90;91.82;101244.81;7744233;18;20054;-71
2023/05/01 00:03:54;;;;;;;5.40;5.00;;;;;;;9.39;91.80;101161.22;7789336;18;20010;-71
2023/05/01 00:06:21;;;;;;;5.47;5.07;;;;;;;9.91;91.94;101231.66;7744016;18;20011;-71
2023/05/01 00:08:48;;;;;;;5.40;5.00;;;;;;;9.92;91.34;101232.50;7748664;18;20547;-72
2023/05/01 00:11:14;;;;;;;6.10;5.70;;;;;;;9.92;91.90;101220.25;7744067;18;20031;-72
2023/05/01 00:13:41;;;;;;;5.47;5.07;;;;;;;9.83;92.38;101207.50;7790185;18;20618;-71
2023/05/01 00:16:08;;;;;;;5.50;5.20;;;;;;;9.98;92.55;101220.00;7743070;18;20064;-71
2023/05/01 00:18:35;;;;;;;5.63;5.32;;;;;;;10.05;92.79;101225.00;7788660;18;20000;-71
2023/05/01 00:21:02;;;;;;;5.18;4.88;;;;;;;9.94;93.12;101194.81;7744355;18;19999;-71
2023/05/01 00:23:28;;;;;;;5.95;5.45;;;;;;;9.65;91.63;101133.13;7789609;18;20002;-70
2023/05/01 00:25:54;;;;;;;5.38;5.03;;;;;;;10.21;90.10;101198.97;7743783;18;20470;-72
2023/05/01 00:28:21;;;;;;;4.88;4.68;;;;;;;10.36;88.62;101196.59;7790014;18;20017;-70
2023/05/01 00:30:47;;;;;;;5.55;5.15;;;;;;;10.44;86.94;101179.63;7743841;18;20088;-73
2023/05/01 00:33:14;;;;;;;6.32;5.20;;;;;;;10.52;85.04;101169.66;7800080;18;20006;-71
2023/05/01 00:35:43;;;;;;;5.47;5.00;;;;;;;10.56;83.81;101158.97;7755059;18;20049;-72
2023/05/01 00:38:10;;;;;;;5.28;4.97;;;;;;;10.41;83.17;101119.44;7797604;18;20066;-72
2023/05/01 00:40:44;;;;;;;6.15;5.63;;;;;;;10.49;82.60;101131.28;7743917;18;20006;-72
2023/05/01 00:43:11;;;;;;;6.15;5.53;;;;;;;10.12;81.88;101062.06;7791261;18;20002;-72
2023/05/01 00:45:39;;;;;;;10.02;5.50;;;;;;;10.63;82.01;101149.03;7743684;18;20053;-71
2023/05/01 00:48:06;;;;;;;5.38;4.90;;;;;;;10.58;82.67;101148.38;7789885;18;20395;-71
2023/05/01 00:50:32;;;;;;;5.35;5.05;;;;;;;10.54;82.88;101142.44;7743862;18;20005;-72
2023/05/01 00:52:59;;;;;;;5.20;4.90;;;;;;;10.51;84.16;101150.44;7786651;18;19997;-72
2023/05/01 00:55:25;;;;;;;5.05;4.75;;;;;;;10.48;84.25;101153.19;7742963;18;20002;-71
2023/05/01 00:57:54;;;;;;;5.13;4.93;;;;;;;10.07;85.72;101100.75;7789051;18;20009;-72
2023/05/01 01:00:23;;;;;;;5.85;5.50;;;;;;;9.66;87.11;101043.09;7701791;18;20380;-71
2023/05/01 01:02:50;;;;;;;5.43;5.13;;;;;;;9.82;88.35;101079.97;7788810;18;20018;-72
2023/05/01 01:05:21;;;;;;;6.30;5.80;;;;;;;10.31;89.50;101164.44;7742615;18;20062;-71
2023/05/01 01:07:55;;;;;;;5.45;5.15;;;;;;;10.31;89.74;101159.19;7789139;18;20458;-70
2023/05/01 01:10:33;;;;;;;5.53;5.20;;;;;;;10.29;89.52;101158.38;7742606;18;19998;-72
2023/05/01 01:13:10;;;;;;;5.65;5.25;;;;;;;10.28;88.98;101147.94;7789531;18;20050;-72
2023/05/01 01:15:51;;;;;;;5.90;5.50;;;;;;;10.04;88.88;101100.88;7742381;18;20001;-72
2023/05/01 01:18:26;;;;;;;9.15;7.20;;;;;;;10.28;87.91;101133.03;7786761;18;20066;-72
2023/05/01 01:21:36;;;;;;;5.53;5.13;;;;;;;10.01;85.99;101069.56;7742279;18;19995;-72
2023/05/01 01:24:14;;;;;;;5.40;5.00;;;;;;;10.33;84.69;101104.03;7721543;18;20049;-72
2023/05/01 01:27:02;;;;;;;6.85;5.72;;;;;;;10.33;83.64;101090.91;7742641;18;20065;-72
2023/05/01 01:29:42;;;;;;;5.93;5.30;;;;;;;10.37;82.69;101077.59;7747176;18;20065;-71
2023/05/01 01:32:50;;;;;;;5.32;4.93;;;;;;;10.36;81.88;101078.53;7746764;18;20074;-72
2023/05/01 01:35:20;;;;;;;8.43;5.43;;;;;;;9.10;80.95;100858.66;7788968;18;20547;-71
2023/05/01 01:38:05;;;;;;;5.18;4.88;;;;;;;10.22;79.85;101024.94;7788610;18;20376;-72
2023/05/01 01:40:43;;;;;;;5.65;5.25;;;;;;;10.53;78.58;101042.78;7791436;18;20064;-72
2023/05/01 01:43:14;;;;;;;5.85;5.40;;;;;;;10.38;78.52;101016.34;7789419;18;20304;-71
2023/05/01 01:45:45;;;;;;;5.40;5.00;;;;;;;10.29;77.92;100973.91;7789691;18;20006;-71
2023/05/01 01:48:22;;;;;;;5.75;5.38;;;;;;;10.21;76.49;100948.03;7789249;18;20017;-72
2023/05/01 01:50:50;;;;;;;5.10;4.80;;;;;;;10.13;76.41;100926.53;7789692;18;19998;-72
2023/05/01 01:53:18;;;;;;;5.18;4.88;;;;;;;10.43;76.32;100978.53;7747656;18;19998;-71
2023/05/01 01:55:47;;;;;;;5.00;4.70;;;;;;;10.09;76.12;100914.50;7789641;18;20072;-72
2023/05/01 01:58:17;;;;;;;5.57;5.28;;;;;;;10.56;76.16;101000.63;7786068;18;20677;-72
2023/05/01 02:00:44;;;;;;;4.95;4.75;;;;;;;10.54;75.86;100994.59;7747814;18;19994;-72
2023/05/01 02:03:12;;;;;;;5.63;5.32;;;;;;;10.53;75.75;100990.28;7787540;18;20689;-72
2023/05/01 02:05:41;;;;;;;4.93;4.63;;;;;;;10.45;75.44;100981.94;7789058;18;19998;-72
2023/05/01 02:08:10;;;;;;;5.38;5.07;;;;;;;10.05;75.42;100912.94;7788154;18;20013;-72
2023/05/01 02:10:39;;;;;;;5.13;4.78;;;;;;;10.13;75.62;100932.63;7788783;18;20018;-73
2023/05/01 02:13:06;;;;;;;5.72;4.97;;;;;;;10.40;75.84;100981.28;7787813;18;19994;-72
2023/05/01 02:15:33;;;;;;;5.20;4.85;;;;;;;9.97;75.76;100915.91;7788803;18;20073;-72
2023/05/01 02:18:04;;;;;;;5.20;4.68;;;;;;;9.95;76.36;100921.22;7789229;18;20060;-72
2023/05/01 02:20:31;;;;;;;5.32;5.03;;;;;;;10.34;75.98;100985.03;7787888;18;20135;-73
2023/05/01 02:22:59;;;;;;;5.00;4.70;;;;;;;9.76;76.30;100895.03;7789929;18;20005;-73
2023/05/01 02:25:29;;;;;;;4.90;4.60;;;;;;;9.89;76.99;100920.66;7791413;18;20488;-72
2023/05/01 02:27:59;;;;;;;5.05;4.65;;;;;;;10.23;76.97;100984.69;7790379;18;20002;-72
2023/05/01 02:30:25;;;;;;;5.20;4.80;;;;;;;10.12;77.79;100974.66;7789624;18;20005;-72
2023/05/01 02:32:51;;;;;;;5.55;4.88;;;;;;;9.76;78.43;100934.34;7789631;18;20046;-72
2023/05/01 02:35:18;;;;;;;4.95;4.75;;;;;;;10.13;78.84;100997.34;7791411;18;20010;-72
2023/05/01 02:37:45;;;;;;;6.28;5.88;;;;;;;10.13;78.67;100997.34;7798563;18;20054;-73
2023/05/01 02:40:13;;;;;;;4.57;4.38;;;;;;;10.14;79.14;100993.78;7804202;18;20656;-72
2023/05/01 02:42:43;;;;;;;6.13;5.72;;;;;;;10.14;78.89;100989.44;7794061;18;20013;-72
2023/05/01 02:45:18;;;;;;;5.30;4.95;;;;;;;10.15;78.62;100990.28;7791068;18;20062;-71
2023/05/01 02:47:47;;;;;;;5.28;4.97;;;;;;;9.62;78.59;100888.69;7792209;18;20028;-72
2023/05/01 02:50:15;;;;;;;5.20;4.90;;;;;;;10.18;78.38;100979.63;7791961;18;20013;-72
2023/05/01 02:52:43;;;;;;;5.22;4.93;;;;;;;10.19;78.34;101004.94;7790439;18;19990;-72
2023/05/01 02:55:10;;;;;;;5.18;4.80;;;;;;;9.99;78.59;100932.44;7792156;18;19998;-72
2023/05/01 02:57:37;;;;;;;10.50;5.68;;;;;;;10.23;78.25;100969.78;7791644;18;20028;-72
2023/05/01 03:00:04;;;;;;;5.55;5.18;;;;;;;10.27;78.16;100973.97;7791293;18;20006;-72
2023/05/01 03:02:30;;;;;;;5.45;5.05;;;;;;;10.30;77.83;100962.50;7790731;18;20002;-72
2023/05/01 03:04:57;;;;;;;5.07;4.78;;;;;;;10.09;77.84;100925.00;7791096;18;20000;-72
2023/05/01 03:07:33;;;;;;;5.55;5.25;;;;;;;10.27;77.68;100952.13;7790673;18;20021;-73
2023/05/01 03:10:02;;;;;;;6.28;5.88;;;;;;;10.25;77.71;100952.19;7749562;18;20009;-72
2023/05/01 03:12:29;;;;;;;5.15;4.85;;;;;;;9.33;77.89;100805.25;7791052;18;20005;-72
2023/05/01 03:14:56;;;;;;;5.63;5.22;;;;;;;10.19;77.34;100934.97;7791870;18;20461;-72
2023/05/01 03:17:22;;;;;;;5.25;4.95;;;;;;;10.15;77.56;100933.41;7791512;18;20447;-71
2023/05/01 03:19:50;;;;;;;6.32;5.72;;;;;;;9.48;77.88;100832.53;7792269;18;20380;-72
2023/05/01 03:22:19;;;;;;;6.03;5.63;;;;;;;10.09;78.29;100940.72;7787610;18;20002;-72
2023/05/01 03:24:46;;;;;;;5.60;5.20;;;;;;;9.92;78.63;100921.38;7791530;18;20650;-72
2023/05/01 03:27:12;;;;;;;5.25;4.93;;;;;;;9.92;78.62;100931.88;7790868;18;20427;-72
2023/05/01 03:29:39;;;;;;;5.20;4.82;;;;;;;9.93;79.46;100933.56;7787996;18;20002;-72
2023/05/01 03:32:06;;;;;;;5.57;5.25;;;;;;;9.90;79.55;100935.47;7791156;18;20018;-72
2023/05/01 03:34:33;;;;;;;6.70;5.80;;;;;;;9.75;79.92;100924.75;7791416;18;20025;-72
2023/05/01 03:36:59;;;;;;;5.25;4.95;;;;;;;9.85;80.28;100940.91;7791268;18;20354;-72
2023/05/01 03:39:25;;;;;;;5.88;5.38;;;;;;;9.23;79.94;100843.25;7792147;18;20065;-72
2023/05/01 03:41:52;;;;;;;5.22;4.93;;;;;;;9.86;80.18;100944.38;7791991;18;20061;-72
2023/05/01 03:44:18;;;;;;;5.57;5.18;;;;;;;9.89;80.38;100947.72;7789113;18;20082;-73
2023/05/01 03:46:44;;;;;;;7.05;5.30;;;;;;;8.72;80.10;100758.22;7789439;18;20005;-71
2023/05/01 03:49:11;;;;;;;5.50;5.20;;;;;;;9.96;80.11;100943.03;7789510;18;20025;-71
2023/05/01 03:51:37;;;;;;;5.60;5.25;;;;;;;9.91;79.62;100935.41;7791033;18;20016;-71
2023/05/01 03:54:04;;;;;;;5.40;4.97;;;;;;;10.06;79.11;100935.59;7789409;18;20012;-71
2023/05/01 03:56:34;;;;;;;5.95;5.47;;;;;;;9.81;78.97;100886.09;7791142;18;20032;-71
2023/05/01 03:59:01;;;;;;;5.80;4.90;;;;;;;9.99;78.59;100903.59;7749061;18;19998;-71
2023/05/01 04:01:27;;;;;;;5.22;4.93;;;;;;;10.01;78.83;100906.16;7790880;18;20010;-72
2023/05/01 04:03:56;;;;;;;5.28;4.88;;;;;;;10.19;78.41;100914.00;7790266;18;20021;-71
2023/05/01 04:06:22;;;;;;;5.75;5.32;;;;;;;10.10;77.94;100892.59;7790168;18;20014;-71
2023/05/01 04:08:49;;;;;;;5.45;5.07;;;;;;;9.91;77.19;100846.25;7790714;18;20186;-72
2023/05/01 04:11:15;;;;;;;5.38;5.00;;;;;;;10.30;77.13;100913.53;7790521;18;20008;-72
2023/05/01 04:13:42;;;;;;;5.50;5.05;;;;;;;10.35;76.97;100906.28;7790414;18;20004;-71
2023/05/01 04:16:08;;;;;;;5.13;4.82;;;;;;;10.18;76.32;100870.34;7788068;18;20026;-70
2023/05/01 04:18:34;;;;;;;5.93;5.53;;;;;;;10.38;76.67;100895.66;7790186;18;20432;-72
2023/05/01 04:21:01;;;;;;;6.07;4.97;;;;;;;10.09;75.75;100841.91;7790848;18;19994;-71
2023/05/01 04:23:27;;;;;;;5.22;4.93;;;;;;;10.43;76.18;100900.66;7787611;18;20440;-71
2023/05/01 04:25:54;;;;;;;5.90;5.20;;;;;;;10.38;75.59;100885.16;7791313;18;19998;-72
2023/05/01 04:28:20;;;;;;;6.30;5.90;;;;;;;10.12;75.35;100840.91;7787460;18;20089;-71
2023/05/01 04:30:47;;;;;;;5.63;5.18;;;;;;;10.48;75.61;100895.19;7789186;18;20066;-71
2023/05/01 04:33:13;;;;;;;4.97;4.70;;;;;;;10.51;75.24;100893.25;7789971;18;19998;-74
2023/05/01 04:35:41;;;;;;;4.90;4.63;;;;;;;10.50;75.20;100888.09;7791038;18;20002;-72
2023/05/01 04:38:09;;;;;;;5.63;5.07;;;;;;;10.49;75.72;100886.41;7787558;18;20008;-72
2023/05/01 04:40:35;;;;;;;5.47;5.18;;;;;;;9.53;75.76;100733.59;7790368;18;19998;-73
2023/05/01 04:43:02;;;;;;;5.28;4.97;;;;;;;10.29;75.91;100856.69;7748328;18;20004;-71
2023/05/01 04:45:28;;;;;;;5.75;5.25;;;;;;;10.52;75.75;100896.72;7790734;18;20014;-72
2023/05/01 04:47:54;;;;;;;5.43;5.13;;;;;;;10.59;75.72;100900.78;7789273;18;20006;-74
2023/05/01 04:50:21;;;;;;;6.13;5.28;;;;;;;10.64;75.39;100888.25;7748806;18;20017;-71
2023/05/01 04:52:48;;;;;;;6.40;5.22;;;;;;;10.22;75.79;100825.59;7789405;18;20006;-73
2023/05/01 04:55:15;;;;;;;5.53;5.13;;;;;;;10.65;75.59;100894.38;7790453;18;20002;-73
2023/05/01 04:57:41;;;;;;;5.65;5.25;;;;;;;10.51;75.78;100876.69;7789519;18;20010;-74
2023/05/01 05:00:08;;;;;;;5.50;5.10;;;;;;;10.75;75.37;100896.47;7789324;18;20481;-72
2023/05/01 05:02:35;;;;;;;5.75;5.35;;;;;;;10.66;75.35;100875.91;7790786;18;20002;-73
2023/05/01 05:05:01;;;;;;;5.70;5.28;;;;;;;10.92;74.77;100894.75;7790179;18;20527;-71
2023/05/01 05:07:28;;;;;;;6.22;5.82;;;;;;;11.02;74.55;100888.09;7788943;18;20024;-72
2023/05/01 05:09:54;;;;;;;5.80;5.43;;;;;;;10.57;73.67;100809.00;7788864;18;20021;-72
2023/05/01 05:12:23;;;;;;;6.00;5.60;;;;;;;10.91;73.88;100836.16;7789862;18;20001;-72
2023/05/01 05:14:50;;;;;;;6.43;5.68;;;;;;;11.31;72.81;100888.41;7791638;18;20541;-71
2023/05/01 05:17:16;;;;;;;6.43;5.97;;;;;;;10.17;72.16;100697.31;7790399;18;20494;-73
2023/05/01 05:19:42;;;;;;;5.45;5.13;;;;;;;11.48;72.32;100875.19;7790585;18;20077;-74
2023/05/01 05:22:11;;;;;;;6.65;6.25;;;;;;;11.05;71.85;100787.31;7786447;18;20010;-72
2023/05/01 05:24:37;;;;;;;5.85;5.45;;;;;;;11.66;71.86;100877.78;7790390;18;20006;-72
2023/05/01 05:27:05;;;;;;;5.80;5.40;;;;;;;11.71;71.92;100884.50;7790324;18;20010;-73
2023/05/01 05:29:32;;;;;;;5.75;5.38;;;;;;;11.76;71.60;100878.97;7789049;18;20073;-72
2023/05/01 05:31:58;;;;;;;5.57;5.18;;;;;;;11.76;71.01;100866.69;7789750;18;20276;-71
2023/05/01 05:34:25;;;;;;;6.38;5.78;;;;;;;11.00;70.71;100736.81;7789760;18;20444;-71
2023/05/01 05:36:52;;;;;;;5.75;5.35;;;;;;;11.60;70.49;100809.78;7790207;18;20066;-73
2023/05/01 05:39:21;;;;;;;6.22;5.05;;;;;;;11.88;70.70;100840.66;7799553;18;20021;-72
2023/05/01 05:41:48;;;;;;;5.43;5.13;;;;;;;11.40;69.53;100739.91;7797667;18;20002;-71
2023/05/01 05:44:14;;;;;;;5.63;5.32;;;;;;;11.64;69.69;100772.72;7797057;18;20001;-72
2023/05/01 05:46:40;;;;;;;5.53;5.20;;;;;;;12.20;69.49;100854.66;7790251;18;20010;-73
2023/05/01 05:49:07;;;;;;;6.00;5.60;;;;;;;12.24;69.18;100844.81;7789239;18;19996;-73
2023/05/01 05:51:33;;;;;;;6.22;5.72;;;;;;;12.26;69.53;100849.06;7791038;18;20068;-72
2023/05/01 05:54:00;;;;;;;6.55;5.75;;;;;;;11.67;69.33;100748.91;7790637;18;20435;-72
2023/05/01 05:56:26;;;;;;;6.25;5.80;;;;;;;12.33;68.44;100836.41;7791885;18;20000;-71
2023/05/01 05:58:53;;;;;;;5.20;4.90;;;;;;;12.00;68.42;100768.97;7791462;18;20006;-71
2023/05/01 06:01:19;;;;;;;5.95;5.55;;;;;;;12.31;68.77;100817.25;7791535;18;20061;-72
2023/05/01 06:03:46;;;;;;;5.63;5.22;;;;;;;12.51;68.81;100837.13;7790862;18;19998;-70
2023/05/01 06:06:12;;;;;;;5.93;5.47;;;;;;;11.42;67.31;100648.69;7791532;18;20058;-73
2023/05/01 06:08:39;;;;;;;5.63;5.32;;;;;;;12.67;67.35;100829.16;7790911;18;20001;-71
2023/05/01 06:11:07;;;;;;;5.40;5.00;;;;;;;12.61;67.30;100814.59;7793026;18;19994;-71
2023/05/01 06:13:34;;;;;;;5.97;5.55;;;;;;;12.31;66.71;100773.34;7790453;18;20034;-71
2023/05/01 06:16:00;;;;;;;5.55;5.25;;;;;;;12.23;66.17;100735.22;7790517;18;20086;-72
2023/05/01 06:18:28;;;;;;;6.20;5.70;;;;;;;12.75;66.67;100819.91;7790127;18;20064;-73
2023/05/01 06:20:55;;;;;;;5.60;5.30;;;;;;;12.70;66.26;100811.41;7792229;18;20569;-71
2023/05/01 06:23:22;;;;;;;8.57;8.02;;;;;;;12.86;66.70;100824.50;7777259;18;20199;-71
2023/05/01 06:25:48;;;;;;;5.80;5.40;;;;;;;12.92;66.13;100818.03;7747064;18;20086;-71
2023/05/01 06:28:15;;;;;;;6.25;5.68;;;;;;;13.00;65.77;100809.69;7787630;18;20004;-73
2023/05/01 06:30:41;;;;;;;6.22;5.40;;;;;;;13.02;65.21;100797.25;7788474;18;20372;-72
2023/05/01 06:33:09;;;;;;;6.05;5.55;;;;;;;13.04;64.88;100796.22;7787841;18;20370;-72
2023/05/01 06:35:38;;;;;;;5.85;5.55;;;;;;;13.05;64.91;100784.75;7788135;18;19998;-72
2023/05/01 06:38:04;;;;;;;5.88;5.47;;;;;;;12.99;64.60;100769.31;7788597;18;20002;-71
2023/05/01 06:40:33;;;;;;;5.35;5.05;;;;;;;12.87;63.91;100726.13;7788608;18;20002;-72
2023/05/01 06:43:01;;;;;;;5.68;5.32;;;;;;;13.11;64.25;100763.28;7785778;18;20020;-72
2023/05/01 06:45:28;;;;;;;5.88;5.47;;;;;;;12.90;63.46;100710.13;7786836;18;20018;-72
2023/05/01 06:47:54;;;;;;;6.13;5.72;;;;;;;13.28;63.27;100761.38;7787894;18;19998;-71
2023/05/01 06:50:21;;;;;;;7.05;6.03;;;;;;;13.32;62.94;100765.56;7788525;18;20006;-71
2023/05/01 06:52:47;;;;;;;5.53;5.13;;;;;;;13.41;62.83;100780.81;7788916;18;20423;-73
2023/05/01 06:55:14;;;;;;;6.05;5.50;;;;;;;13.52;63.12;100775.69;7789478;18;19994;-72
2023/05/01 06:57:40;;;;;;;6.53;6.00;;;;;;;13.03;63.39;100714.63;7787987;18;19998;-71
2023/05/01 07:00:09;;;;;;;5.60;5.20;;;;;;;13.55;63.53;100785.19;7785696;18;20070;-73
2023/05/01 07:02:36;;;;;;;6.15;5.32;;;;;;;13.61;62.84;100786.59;7788307;18;20024;-74
2023/05/01 07:05:04;;;;;;;5.28;4.88;;;;;;;13.60;62.23;100746.19;7787829;18;20002;-74
2023/05/01 07:07:31;;;;;;;6.32;5.82;;;;;;;13.91;61.72;100766.19;7787051;18;20013;-74
2023/05/01 07:09:57;;;;;;;5.80;5.32;;;;;;;14.11;61.78;100770.16;7789320;18;19998;-73
2023/05/01 07:12:24;;;;;;;5.97;5.60;;;;;;;14.08;61.67;100756.31;7788207;18;20010;-74
2023/05/01 07:14:51;;;;;;;5.22;4.95;;;;;;;13.20;61.03;100601.13;7791146;18;20002;-73
2023/05/01 07:17:17;;;;;;;9.20;5.72;;;;;;;14.25;60.32;100757.81;7785502;18;20396;-73
2023/05/01 07:19:44;;;;;;;6.13;5.72;;;;;;;14.36;61.05;100766.72;7788946;18;20127;-73
2023/05/01 07:22:11;;;;;;;5.78;5.38;;;;;;;14.58;59.73;100753.91;7786466;18;20054;-74
2023/05/01 07:24:37;;;;;;;6.05;5.65;;;;;;;14.62;60.52;100772.06;7785916;18;20022;-72
2023/05/01 07:27:04;;;;;;;5.90;5.50;;;;;;;14.93;59.71;100785.81;7748558;18;20000;-72
2023/05/01 07:29:30;;;;;;;6.38;5.80;;;;;;;15.19;59.59;100785.78;7788545;18;20012;-73
2023/05/01 07:31:56;;;;;;;5.82;5.43;;;;;;;15.30;58.32;100755.00;7788427;18;20053;-74
2023/05/01 07:34:23;;;;;;;6.30;5.80;;;;;;;14.82;57.57;100622.75;7787918;18;20047;-72
2023/05/01 07:36:49;;;;;;;5.70;5.40;;;;;;;15.34;57.36;100700.94;7787627;18;20042;-72
2023/05/01 07:39:16;;;;;;;5.50;5.10;;;;;;;15.28;57.82;100706.69;7788108;18;19998;-72
2023/05/01 07:41:43;;;;;;;6.28;5.47;;;;;;;15.39;57.54;100719.13;7786933;18;19998;-74
2023/05/01 07:44:09;;;;;;;6.28;5.88;;;;;;;14.89;57.05;100602.88;7788278;18;20054;-72
2023/05/01 07:46:36;;;;;;;6.68;6.18;;;;;;;15.28;57.27;100680.25;7789178;18;20231;-72
2023/05/01 07:49:03;;;;;;;6.53;6.03;;;;;;;15.18;56.43;100659.88;7786456;18;20377;-73
2023/05/01 07:51:30;;;;;;;7.25;5.82;;;;;;;15.31;57.27;100700.31;7788964;18;20019;-73
2023/05/01 07:53:56;;;;;;;6.32;5.93;;;;;;;15.45;57.23;100716.03;7787819;18;20002;-75
2023/05/01 07:56:22;;;;;;;6.18;5.78;;;;;;;15.37;57.16;100710.44;7789209;18;20028;-73
2023/05/01 07:58:49;;;;;;;5.80;5.50;;;;;;;14.88;56.44;100613.53;7787175;18;20225;-72
2023/05/01 08:01:15;;;;;;;6.40;5.93;;;;;;;15.44;57.03;100708.22;7790029;18;20217;-72
2023/05/01 08:03:42;;;;;;;7.00;6.47;;;;;;;14.99;56.47;100616.25;7789548;18;20002;-72
2023/05/01 08:06:08;;;;;;;6.10;5.60;;;;;;;15.54;56.19;100686.28;7789453;18;20005;-72
2023/05/01 08:08:35;;;;;;;6.53;6.00;;;;;;;15.63;55.77;100718.28;7786818;18;20040;-72
2023/05/01 08:11:01;;;;;;;6.38;5.70;;;;;;;14.71;56.54;100565.41;7788673;18;20348;-72
2023/05/01 08:13:28;;;;;;;6.38;5.88;;;;;;;16.24;56.44;100773.84;7787819;18;20049;-73
2023/05/01 08:15:57;;;;;;;5.60;5.30;;;;;;;16.12;54.65;100688.22;7787564;18;20226;-72
2023/05/01 08:18:24;;;;;;;6.00;5.57;;;;;;;16.20;54.65;100696.44;7787746;18;20037;-73
2023/05/01 08:20:50;;;;;;;6.57;5.68;;;;;;;16.35;53.84;100695.25;7790499;18;20098;-72
2023/05/01 08:23:17;;;;;;;7.32;6.05;;;;;;;16.13;54.23;100666.91;7790722;18;20010;-72
2023/05/01 08:25:45;;;;;;;6.15;5.78;;;;;;;15.51;53.74;100529.59;7787290;18;19993;-72
2023/05/01 08:28:13;;;;;;;5.18;4.97;;;;;;;16.74;53.21;100697.59;7787790;18;20151;-73
2023/05/01 08:30:40;;;;;;;5.97;5.57;;;;;;;15.84;53.51;100568.56;7786823;18;19998;-72
2023/05/01 08:33:06;;;;;;;6.07;5.68;;;;;;;17.08;52.39;100706.41;7787812;18;19998;-74
2023/05/01 08:35:33;;;;;;;6.60;6.05;;;;;;;17.10;52.03;100675.31;7785829;18;20451;-73
2023/05/01 08:38:00;;;;;;;6.30;5.90;;;;;;;17.10;52.47;100699.19;7787216;18;20347;-72
2023/05/01 08:40:31;;;;;;;6.10;5.70;;;;;;;17.70;52.81;100768.66;7788237;18;20062;-74
2023/05/01 08:43:00;;;;;;;6.72;6.22;;;;;;;17.74;50.88;100681.66;7786689;18;20387;-73
2023/05/01 08:45:28;;;;;;;6.40;6.00;;;;;;;17.72;51.35;100696.84;7788266;18;20328;-74
2023/05/01 08:47:55;;;;;;;6.07;5.68;;;;;;;17.72;51.10;100683.56;7787463;18;20057;-72
2023/05/01 08:50:22;;;;;;;6.60;6.07;;;;;;;17.33;51.57;100657.53;7788832;18;20010;-74
2023/05/01 08:52:51;;;;;;;6.47;6.07;;;;;;;17.58;52.26;100732.50;7787009;18;20315;-73
2023/05/01 08:55:19;;;;;;;7.03;6.10;;;;;;;17.38;51.51;100654.53;7788066;18;20014;-72
2023/05/01 08:57:47;;;;;;;6.32;5.80;;;;;;;17.23;51.41;100635.38;7787119;18;20455;-72
2023/05/01 09:00:18;;;;;;;6.30;5.95;;;;;;;17.70;52.07;100738.59;7787778;18;20004;-71
2023/05/01 09:02:49;;;;;;;6.10;5.70;;;;;;;17.89;51.72;100741.47;7788243;18;20689;-70
2023/05/01 09:05:17;;;;;;;5.70;5.40;;;;;;;18.01;51.96;100773.31;7788070;18;20375;-72
2023/05/01 09:07:45;;;;;;;6.07;5.60;;;;;;;18.01;50.13;100665.25;7765960;18;20578;-74
2023/05/01 09:10:14;;;;;;;5.97;5.65;;;;;;;18.69;49.14;100697.53;7788411;18;20009;-71
2023/05/01 09:12:43;;;;;;;6.15;5.80;;;;;;;19.11;48.15;100681.50;7787762;18;20072;-72
2023/05/01 09:15:11;;;;;;;5.70;5.40;;;;;;;19.43;47.02;100680.44;7789815;18;19998;-72
2023/05/01 09:17:38;;;;;;;6.35;5.95;;;;;;;19.77;46.99;100697.88;7787207;18;20061;-71
2023/05/01 09:20:06;;;;;;;7.88;7.28;;;;;;;19.68;45.57;100624.97;7788480;18;19994;-73
2023/05/01 09:22:34;;;;;;;6.80;6.35;;;;;;;19.82;45.78;100664.50;7788543;18;20094;-72
2023/05/01 09:25:01;;;;;;;6.25;5.85;;;;;;;20.18;45.75;100710.03;7789209;18;20084;-72
2023/05/01 09:27:33;;;;;;;7.25;6.55;;;;;;;20.29;45.13;100679.75;7786574;18;19994;-72
2023/05/01 09:30:00;;;;;;;6.40;6.00;;;;;;;20.29;44.60;100629.13;7748418;18;20001;-71
2023/05/01 09:32:27;;;;;;;6.38;5.97;;;;;;;20.43;44.71;100665.97;7749647;18;19998;-72
2023/05/01 09:34:55;;;;;;;6.47;6.07;;;;;;;20.12;44.67;100628.03;7785040;18;20013;-71
2023/05/01 09:37:28;;;;;;;6.25;5.90;;;;;;;20.53;45.74;100709.44;7790487;18;20072;-72
2023/05/01 09:40:09;;;;;;;13.48;6.63;;;;;;;20.65;44.05;100670.13;7791013;18;20020;-72
2023/05/01 09:42:47;;;;;;;6.53;6.10;;;;;;;20.52;44.71;100667.75;7790429;18;20139;-71
2023/05/01 09:45:15;;;;;;;5.88;5.57;;;;;;;20.20;44.06;100558.84;7793881;18;20483;-71
2023/05/01 09:47:42;;;;;;;6.07;5.78;;;;;;;20.37;45.13;100695.03;7790895;18;20023;-72
2023/05/01 09:50:11;;;;;;;6.43;5.97;;;;;;;20.85;43.98;100697.56;7790934;18;20494;-72
2023/05/01 09:52:37;;;;;;;6.90;6.30;;;;;;;21.08;43.74;100694.50;7790279;18;19998;-71
2023/05/01 09:55:17;;;;;;;6.03;5.72;;;;;;;20.86;42.53;100607.69;7789930;18;20030;-71
2023/05/01 09:57:45;;;;;;;6.80;6.30;;;;;;;20.33;43.48;100579.88;7789282;18;20013;-72
2023/05/01 10:00:14;;;;;;;6.60;6.20;;;;;;;19.41;45.69;100561.81;7789240;18;20382;-72
2023/05/01 10:02:43;;;;;;;6.78;6.28;;;;;;;20.47;43.15;100589.22;7787921;18;20077;-72
2023/05/01 10:05:10;;;;;;;6.50;6.00;;;;;;;19.68;44.16;100542.44;7790211;18;20025;-71
2023/05/01 10:07:37;;;;;;;6.35;6.05;;;;;;;19.36;44.25;100503.66;7786805;18;20704;-72
2023/05/01 10:10:18;;;;;;;6.70;6.20;;;;;;;19.92;45.44;100675.16;7790291;18;20014;-73
2023/05/01 10:12:45;;;;;;;6.20;5.90;;;;;;;20.29;44.79;100706.41;7788085;18;20006;-71
2023/05/01 10:15:11;;;;;;;6.25;5.88;;;;;;;20.41;44.48;100675.09;7790135;18;20006;-72
2023/05/01 10:17:51;;;;;;;6.57;6.18;;;;;;;20.90;44.20;100692.59;7788022;18;20676;-73
2023/05/01 10:20:17;;;;;;;6.10;5.70;;;;;;;20.61;43.54;100623.41;7790625;18;20439;-71
2023/05/01 10:22:45;;;;;;;6.78;6.28;;;;;;;20.55;43.75;100602.66;7787251;18;20226;-72
2023/05/01 10:25:12;;;;;;;6.45;6.05;;;;;;;19.90;46.49;100655.81;7789294;18;20002;-72
2023/05/01 10:27:39;;;;;;;6.75;6.35;;;;;;;20.58;46.00;100719.66;7785151;18;20068;-72
2023/05/01 10:30:07;;;;;;;9.07;6.40;;;;;;;21.00;44.92;100758.44;7786009;18;20339;-72
2023/05/01 10:32:36;;;;;;;7.10;6.53;;;;;;;20.82;44.37;100670.34;7787319;18;20005;-72
2023/05/01 10:35:13;;;;;;;6.45;6.05;;;;;;;20.26;45.04;100638.22;7793668;18;20001;-73
2023/05/01 10:37:48;;;;;;;7.60;6.28;;;;;;;20.64;43.53;100616.94;7798934;18;20399;-72
2023/05/01 10:40:46;;;;;;;6.18;5.72;;;;;;;20.83;43.66;100626.69;7801189;18;19991;-72
2023/05/01 10:43:33;;;;;;;6.20;5.80;;;;;;;19.53;44.55;100523.41;7787881;18;20031;-73
2023/05/01 10:46:08;;;;;;;6.25;5.85;;;;;;;19.32;44.49;100518.22;7789014;18;20065;-71
2023/05/01 10:48:38;;;;;;;6.50;5.95;;;;;;;19.67;45.37;100642.78;7788734;18;20057;-72
2023/05/01 10:51:10;;;;;;;6.00;5.60;;;;;;;19.75;43.29;100524.94;7790932;18;20013;-71
2023/05/01 10:53:39;;;;;;;6.60;6.20;;;;;;;19.71;44.92;100622.91;7788919;18;20001;-73
2023/05/01 10:56:39;;;;;;;6.60;6.10;;;;;;;20.08;43.88;100613.31;7787126;18;20400;-70
2023/05/01 10:59:06;;;;;;;5.95;5.63;;;;;;;20.12;44.06;100620.84;7789572;18;20053;-72
2023/05/01 11:01:36;;;;;;;6.78;6.30;;;;;;;20.16;44.49;100644.56;7783509;18;19998;-70
2023/05/01 11:04:23;;;;;;;6.20;5.65;;;;;;;20.36;44.35;100664.84;7788652;18;20005;-73
2023/05/01 11:07:06;;;;;;;7.05;6.05;;;;;;;20.65;44.70;100679.97;7750369;18;19989;-72
2023/05/01 11:09:41;;;;;;;6.35;5.95;;;;;;;21.09;43.81;100728.22;7790424;18;20028;-71
2023/05/01 11:12:15;;;;;;;7.25;6.15;;;;;;;21.01;44.48;100699.59;7791393;18;19994;-71
2023/05/01 11:14:54;;;;;;;7.50;6.47;;;;;;;19.61;46.32;100583.94;7790309;18;20002;-72
2023/05/01 11:17:39;;;;;;;6.40;5.93;;;;;;;20.56;46.76;100798.09;7789011;18;20057;-72
2023/05/01 11:20:07;;;;;;;6.93;6.43;;;;;;;20.96;45.44;100744.53;7787336;18;20004;-72
2023/05/01 11:22:38;;;;;;;6.95;6.45;;;;;;;20.31;45.43;100635.97;7787491;18;20045;-71
2023/05/01 11:25:26;;;;;;;6.45;6.05;;;;;;;20.86;45.35;100731.25;7785932;18;20052;-74
2023/05/01 11:27:58;;;;;;;27.23;25.52;;;;;;;19.59;44.98;100508.69;7637309;18;20412;-71
2023/05/01 11:30:25;;;;;;;7.30;6.27;;;;;;;20.76;45.16;100701.09;7682332;18;20032;-72
2023/05/01 11:32:51;;;;;;;6.45;6.05;;;;;;;20.56;44.64;100620.31;7787510;18;19994;-74
2023/05/01 11:35:20;;;;;;;6.25;5.85;;;;;;;20.45;45.01;100671.16;7788145;18;19994;-73